createdAt,value
2022-11-04T00:00:09.829Z,10.4
2022-11-04T00:02:27.556Z,4.5
2022-11-04T00:04:45.014Z,5.8
2022-11-04T00:07:02.818Z,10.2
2022-11-04T00:09:20.496Z,10.3
2022-11-04T00:11:38.275Z,10.2
2022-11-04T00:13:55.893Z,9.9
2022-11-04T00:16:13.648Z,10.2
2022-11-04T00:18:31.355Z,9.8
2022-11-04T00:20:48.837Z,10.4
2022-11-04T00:23:07.182Z,3.7
2022-11-04T00:25:24.558Z,9.6
2022-11-04T00:27:41.969Z,10.2
2022-11-04T00:29:59.779Z,9.9
2022-11-04T00:32:17.329Z,9.8
2022-11-04T00:34:35.051Z,6.6
2022-11-04T00:36:52.724Z,9.7
2022-11-04T00:39:10.555Z,9.9
2022-11-04T00:41:28.679Z,9.7
2022-11-04T00:43:46.024Z,9.6
2022-11-04T00:46:03.685Z,9.7
2022-11-04T00:48:21.481Z,9.8
2022-11-04T00:50:39.141Z,9.9
2022-11-04T00:52:56.809Z,9.9
2022-11-04T00:55:14.311Z,6.3
2022-11-04T00:57:32.063Z,8.9
2022-11-04T00:59:49.735Z,9.6
2022-11-04T01:02:07.617Z,9.3
2022-11-04T01:04:25.205Z,9.3
2022-11-04T01:06:43.014Z,9.4
2022-11-04T01:09:00.716Z,9.5
2022-11-04T01:11:19.376Z,9.8
2022-11-04T01:13:36.155Z,9.4
2022-11-04T01:15:53.840Z,10
2022-11-04T01:18:11.685Z,9.2
2022-11-04T01:20:29.224Z,9.1
2022-11-04T01:22:46.841Z,6.9
2022-11-04T01:25:04.547Z,9.8
2022-11-04T01:27:22.340Z,9.2
2022-11-04T01:29:40.051Z,9.4
2022-11-04T01:31:57.807Z,9.7
2022-11-04T01:34:15.468Z,9.9
2022-11-04T01:36:33.176Z,9.9
2022-11-04T01:38:50.863Z,8.9
2022-11-04T01:41:08.569Z,9.2
2022-11-04T01:43:26.046Z,6.5
2022-11-04T01:45:43.645Z,9.8
2022-11-04T01:48:01.199Z,8.5
2022-11-04T01:50:19.219Z,9.2
2022-11-04T01:52:36.559Z,9.4
2022-11-04T01:54:54.007Z,3.1
2022-11-04T01:57:14.845Z,9.8
2022-11-04T01:59:29.272Z,10.3
2022-11-04T02:01:47.183Z,8.7
2022-11-04T02:04:04.737Z,8.7
2022-11-04T02:06:22.447Z,8.7
2022-11-04T02:08:40.111Z,8.3
2022-11-04T02:10:57.613Z,4.3
2022-11-04T02:13:15.186Z,10.3
2022-11-04T02:15:33.277Z,8.6
2022-11-04T02:17:50.648Z,8.6
2022-11-04T02:20:08.099Z,9.6
2022-11-04T02:22:25.723Z,9.6
2022-11-04T02:24:43.321Z,7.6
2022-11-04T02:27:00.798Z,9
2022-11-04T02:29:18.389Z,9.7
2022-11-04T02:31:35.949Z,9.3
2022-11-04T02:33:53.603Z,9.1
2022-11-04T02:36:11.336Z,9
2022-11-04T02:38:29.045Z,8.8
2022-11-04T02:40:46.489Z,5.9
2022-11-04T02:43:04.274Z,10.1
2022-11-04T02:45:21.664Z,10.6
2022-11-04T02:47:39.313Z,9.5
2022-11-04T02:49:57.039Z,8.5
2022-11-04T02:52:14.593Z,8.2
2022-11-04T02:54:32.321Z,9.4
2022-11-04T02:56:50.062Z,8.4
2022-11-04T02:59:07.601Z,8.1
2022-11-04T03:01:25.313Z,9.8
2022-11-04T03:03:42.785Z,10.8
2022-11-04T03:06:00.403Z,8.6
2022-11-04T03:08:17.876Z,9.4
2022-11-04T03:10:35.388Z,9.6
2022-11-04T03:12:53.027Z,9.8
2022-11-04T03:15:10.484Z,8.8
2022-11-04T03:17:28.137Z,8.1
2022-11-04T03:19:45.604Z,8.4
2022-11-04T03:22:03.208Z,7.2
2022-11-04T03:24:20.778Z,8.7
2022-11-04T03:26:38.334Z,8.2
2022-11-04T03:28:56.120Z,8.3
2022-11-04T03:31:13.434Z,9.3
2022-11-04T03:33:30.976Z,9.2
2022-11-04T03:35:48.609Z,8.2
2022-11-04T03:38:06.015Z,8.8
2022-11-04T03:40:23.471Z,8.3
2022-11-04T03:42:40.914Z,7.8
2022-11-04T03:44:58.598Z,8.3
2022-11-04T03:47:16.190Z,5.8
2022-11-04T03:49:33.909Z,5.8
2022-11-04T03:51:51.469Z,6.8
2022-11-04T03:54:09.219Z,8.7
2022-11-04T03:56:26.831Z,5.4
2022-11-04T03:58:44.295Z,8.8
2022-11-04T04:01:01.913Z,8.2
2022-11-04T04:03:19.396Z,8.7
2022-11-04T04:05:37.012Z,8.4
2022-11-04T04:07:54.559Z,3.4
2022-11-04T04:10:12.053Z,8.8
2022-11-04T04:12:29.593Z,8.6
2022-11-04T04:14:47.384Z,9.3
2022-11-04T04:17:04.713Z,8.8
2022-11-04T04:19:22.203Z,8.3
2022-11-04T04:21:39.742Z,5.1
2022-11-04T04:23:57.350Z,8.8
2022-11-04T04:26:14.776Z,8.9
2022-11-04T04:28:32.437Z,8.7
2022-11-04T04:30:50.115Z,5.1
2022-11-04T04:33:07.738Z,8.2
2022-11-04T04:35:25.333Z,8
2022-11-04T04:37:43.204Z,6.5
2022-11-04T04:40:00.712Z,8.5
2022-11-04T04:42:18.499Z,8.8
2022-11-04T04:44:35.984Z,8.8
2022-11-04T04:46:53.574Z,8.1
2022-11-04T04:49:11.325Z,8.9
2022-11-04T04:51:28.806Z,8.1
2022-11-04T04:53:46.542Z,7.9
2022-11-04T04:56:04.132Z,7.8
2022-11-04T04:58:21.940Z,7.9
2022-11-04T05:00:39.784Z,8.1
2022-11-04T05:02:57.527Z,5.3
2022-11-04T05:07:32.813Z,4.7
2022-11-04T05:09:50.516Z,8.9
2022-11-04T05:12:08.170Z,7.8
2022-11-04T05:14:25.969Z,9.6
2022-11-04T05:16:43.612Z,8.3
2022-11-04T05:19:01.435Z,6.3
2022-11-04T05:21:18.899Z,8.7
2022-11-04T05:23:36.707Z,8.3
2022-11-04T05:25:54.283Z,9
2022-11-04T05:28:12.256Z,6.4
2022-11-04T05:30:29.697Z,9.5
2022-11-04T05:32:47.289Z,6.9
2022-11-04T05:35:05.073Z,9.5
2022-11-04T05:37:22.763Z,9.6
2022-11-04T05:39:40.580Z,5.3
2022-11-04T05:41:58.161Z,8.6
2022-11-04T05:44:16.089Z,10.5
2022-11-04T05:46:33.846Z,7.9
2022-11-04T05:48:51.431Z,9.4
2022-11-04T05:51:09.017Z,10.9
2022-11-04T05:55:44.570Z,11.3
2022-11-04T05:58:02.155Z,10.6
2022-11-04T06:00:19.958Z,9.9
2022-11-04T06:02:37.547Z,8.5
2022-11-04T06:04:55.472Z,10.2
2022-11-04T06:07:12.994Z,11.3
2022-11-04T06:09:31.031Z,11
2022-11-04T06:11:48.615Z,10.1
2022-11-04T06:14:06.479Z,12.1
2022-11-04T06:16:24.367Z,11.6
2022-11-04T06:18:41.911Z,12.3
2022-11-04T06:20:59.674Z,13
2022-11-04T06:23:17.191Z,9.3
2022-11-04T06:25:35.088Z,12.3
2022-11-04T06:27:52.886Z,13.9
2022-11-04T06:30:11.465Z,12.8
2022-11-04T06:32:29.399Z,12.4
2022-11-04T06:34:47.175Z,14.3
2022-11-04T06:37:04.763Z,13
2022-11-04T06:39:22.331Z,11
2022-11-04T06:41:42.716Z,11.5
2022-11-04T06:43:57.893Z,15.6
2022-11-04T06:46:15.978Z,14.3
2022-11-04T06:48:33.665Z,15.6
2022-11-04T06:50:51.573Z,16.1
2022-11-04T06:53:09.420Z,15.5
2022-11-04T06:55:27.027Z,11.9
2022-11-04T06:57:44.803Z,16.9
2022-11-04T07:00:02.541Z,17.1
2022-11-04T07:02:20.393Z,15.6
2022-11-04T07:04:37.992Z,16
2022-11-04T07:06:55.739Z,17.4
2022-11-04T07:09:13.312Z,15.6
2022-11-04T07:11:31.246Z,19.3
2022-11-04T07:13:48.801Z,16.1
2022-11-04T07:16:06.705Z,17.4
2022-11-04T07:20:42.440Z,21
2022-11-04T07:22:59.933Z,21
2022-11-04T07:25:17.545Z,20.1
2022-11-04T07:27:35.420Z,20.9
2022-11-04T07:29:52.994Z,21.1
2022-11-04T07:32:10.883Z,21.4
2022-11-04T07:34:28.285Z,22.3
2022-11-04T07:39:03.766Z,24.7
2022-11-04T07:41:21.454Z,26.4
2022-11-04T07:43:39.016Z,22.4
2022-11-04T07:45:56.842Z,31.4
2022-11-04T07:48:14.435Z,33.2
2022-11-04T07:50:31.969Z,33
2022-11-04T07:52:49.745Z,34.8
2022-11-04T07:55:07.223Z,34.7
2022-11-04T07:57:25.125Z,34.4
2022-11-04T07:59:42.644Z,33.4
2022-11-04T08:02:00.453Z,34.3
2022-11-04T08:04:17.946Z,34.6
2022-11-04T08:06:35.414Z,32.9
2022-11-04T08:08:52.855Z,33.1
2022-11-04T08:11:14.397Z,33.7
2022-11-04T08:13:28.043Z,37.9
2022-11-04T08:15:45.378Z,38
2022-11-04T08:18:02.930Z,38.4
2022-11-04T08:20:20.150Z,38.9
2022-11-04T08:22:37.738Z,39.4
2022-11-04T08:24:54.811Z,41.2
2022-11-04T08:27:12.322Z,39.9
2022-11-04T08:29:29.612Z,41.8
2022-11-04T08:31:47.046Z,41.8
2022-11-04T08:34:04.343Z,38.1
2022-11-04T08:36:21.521Z,38.6
2022-11-04T08:38:39.018Z,40.6
2022-11-04T08:40:59.713Z,40.8
2022-11-04T08:43:14.259Z,40.9
2022-11-04T08:45:33.608Z,43.8
2022-11-04T08:47:48.896Z,44.2
2022-11-04T08:50:06.416Z,36.7
2022-11-04T08:52:23.743Z,39.1
2022-11-04T08:54:40.990Z,43.6
2022-11-04T08:56:58.378Z,38.3
2022-11-04T08:59:16.063Z,37.1
2022-11-04T09:01:35.752Z,36.8
2022-11-04T09:03:51.359Z,38.8
2022-11-04T09:06:08.768Z,38.8
2022-11-04T09:08:26.566Z,38.3
2022-11-04T09:10:44.073Z,38.4
2022-11-04T09:13:01.862Z,38.2
2022-11-04T09:15:20.151Z,37.8
2022-11-04T09:17:37.161Z,38.2
2022-11-04T09:19:54.638Z,37.8
2022-11-04T09:22:12.314Z,38.7
2022-11-04T09:24:29.955Z,33.7
2022-11-04T09:26:47.515Z,32.6
2022-11-04T09:29:05.256Z,34.3
2022-11-04T09:31:23.087Z,34.9
2022-11-04T09:33:40.809Z,35
2022-11-04T09:35:58.543Z,38.4
2022-11-04T09:38:16.159Z,37.3
2022-11-04T09:40:33.889Z,37.6
2022-11-04T09:42:51.289Z,38.5
2022-11-04T09:45:25.807Z,39.8
2022-11-04T09:47:43.458Z,39
2022-11-04T09:50:00.926Z,40.1
2022-11-04T09:52:29.587Z,39.3
2022-11-04T09:54:47.618Z,37.1
2022-11-04T09:57:04.749Z,36.4
2022-11-04T09:59:22.297Z,37.5
2022-11-04T10:01:40.186Z,37.9
2022-11-04T10:03:57.953Z,37.7
2022-11-04T10:06:15.306Z,36.1
2022-11-04T10:08:37.680Z,36.4
2022-11-04T10:10:50.428Z,36.6
2022-11-04T10:13:08.327Z,34.4
2022-11-04T10:15:25.855Z,31.1
2022-11-04T10:17:43.318Z,31
2022-11-04T10:20:01.017Z,30.1
2022-11-04T10:22:18.482Z,27.3
2022-11-04T10:24:36.110Z,31.1
2022-11-04T10:26:59.087Z,29.6
2022-11-04T10:29:11.372Z,31.8
2022-11-04T10:31:29.020Z,31.5
2022-11-04T10:33:46.682Z,29.9
2022-11-04T10:36:04.401Z,32.8
2022-11-04T10:38:22.087Z,35.3
2022-11-04T10:40:39.631Z,37.6
2022-11-04T10:42:57.265Z,39.3
2022-11-04T10:45:14.872Z,39.8
2022-11-04T10:47:32.425Z,39.6
2022-11-04T10:50:07.064Z,38.9
2022-11-04T10:52:22.945Z,39
2022-11-04T10:54:36.510Z,36.8
2022-11-04T10:56:54.100Z,36.9
2022-11-04T10:59:14.022Z,34.7
2022-11-04T11:01:29.502Z,30.1
2022-11-04T11:03:46.860Z,27.9
2022-11-04T11:06:04.546Z,29.1
2022-11-04T11:08:22.231Z,29.2
2022-11-04T11:10:39.954Z,28.1
2022-11-04T11:13:17.381Z,27.2
2022-11-04T11:15:34.944Z,25.7
2022-11-04T11:17:52.920Z,24.3
2022-11-04T11:20:10.284Z,23.1
2022-11-04T11:22:27.992Z,22.2
2022-11-04T11:24:45.673Z,20.3
2022-11-04T11:27:03.172Z,18
2022-11-04T11:29:20.762Z,19.1
2022-11-04T11:31:38.486Z,19
2022-11-04T11:33:56.081Z,18.3
2022-11-04T11:36:13.740Z,17.5
2022-11-04T11:41:10.732Z,17.4
2022-11-04T11:43:23.380Z,16.4
2022-11-04T11:45:40.647Z,15.4
2022-11-04T11:47:58.271Z,15.6
2022-11-04T11:50:16.072Z,16.4
2022-11-04T11:52:33.575Z,17.3
2022-11-04T11:54:51.253Z,17.9
2022-11-04T11:57:25.706Z,16.3
2022-11-04T12:01:11.983Z,15.3
2022-11-04T12:03:25.498Z,16
2022-11-04T12:09:45.613Z,15.2
2022-11-04T12:12:21.649Z,16.4
2022-11-04T12:14:43.659Z,15.8
2022-11-04T12:16:59.249Z,14.6
2022-11-04T12:19:16.805Z,14.6
2022-11-04T12:21:34.326Z,14.2
2022-11-04T12:23:52.021Z,15.9
2022-11-04T12:26:09.673Z,15.8
2022-11-04T12:28:27.271Z,18.3
2022-11-04T12:30:44.933Z,16.2
2022-11-04T12:33:02.544Z,16.3
2022-11-04T12:35:20.213Z,16.6
2022-11-04T12:37:38.010Z,14.1
2022-11-04T12:39:55.781Z,15.3
2022-11-04T12:42:58.265Z,14.6
2022-11-04T12:45:15.811Z,12.1
2022-11-04T12:47:33.749Z,16.9
2022-11-04T12:49:51.185Z,14.8
2022-11-04T12:52:09.117Z,14.6
2022-11-04T12:54:26.816Z,15.1
2022-11-04T12:56:44.590Z,14.6
2022-11-04T13:01:20.138Z,14.4
2022-11-04T13:03:37.874Z,16.3
2022-11-04T13:05:55.433Z,15.1
2022-11-04T13:08:14.470Z,13.9
2022-11-04T13:10:31.284Z,16.8
2022-11-04T13:12:48.299Z,13.1
2022-11-04T13:15:05.939Z,20
2022-11-04T13:17:23.694Z,13
2022-11-04T13:19:41.460Z,15.2
2022-11-04T13:21:59.154Z,14.7
2022-11-04T13:24:16.999Z,15.7
2022-11-04T13:26:34.456Z,14.7
2022-11-04T13:28:52.182Z,19.9
2022-11-04T13:31:09.529Z,18.1
2022-11-04T13:33:27.290Z,18.8
2022-11-04T13:38:02.122Z,19.3
2022-11-04T13:40:19.625Z,19.1
2022-11-04T13:42:36.928Z,18.9
2022-11-04T13:44:54.591Z,19.3
2022-11-04T13:47:11.957Z,19.6
2022-11-04T13:49:29.614Z,19.5
2022-11-04T13:51:47.004Z,19.2
2022-11-04T13:54:04.645Z,19
2022-11-04T13:56:35.189Z,18.3
2022-11-04T13:58:52.131Z,18.3
2022-11-04T14:01:09.495Z,18.6
2022-11-04T14:03:26.830Z,18.4
2022-11-04T14:05:44.226Z,17.9
2022-11-04T14:08:01.856Z,18
2022-11-04T14:10:19.051Z,18.1
2022-11-04T14:12:36.376Z,17.8
2022-11-04T14:14:53.763Z,18.3
2022-11-04T14:17:11.252Z,18.4
2022-11-04T14:19:28.598Z,18.3
2022-11-04T14:21:45.950Z,18.4
2022-11-04T14:24:03.559Z,18.1
2022-11-04T14:26:21.371Z,16.4
2022-11-04T14:28:38.917Z,16.9
2022-11-04T14:30:56.469Z,16.4
2022-11-04T14:33:14.423Z,16.8
2022-11-04T14:35:31.799Z,17.2
2022-11-04T14:37:53.231Z,16.8
2022-11-04T14:40:06.877Z,13.1
2022-11-04T14:42:24.766Z,10.4
2022-11-04T14:44:42.289Z,16.3
2022-11-04T14:47:00.037Z,17.1
2022-11-04T14:49:17.631Z,17.3
2022-11-04T14:51:35.420Z,17.1
2022-11-04T14:53:53.171Z,16.7
2022-11-04T14:56:10.582Z,16.4
2022-11-04T14:58:28.342Z,11.5
2022-11-04T15:00:45.984Z,16.7
2022-11-04T15:03:04.220Z,16.2
2022-11-04T15:05:58.786Z,15.9
2022-11-04T15:08:16.451Z,16.5
2022-11-04T15:10:33.993Z,15.6
2022-11-04T15:12:51.574Z,13.8
2022-11-04T15:15:09.350Z,14.5
2022-11-04T15:17:26.974Z,15.6
2022-11-04T15:19:44.508Z,16.9
2022-11-04T15:22:02.116Z,10.9
2022-11-04T15:24:20.007Z,14.9
2022-11-04T15:26:37.384Z,17.1
2022-11-04T15:28:55.085Z,14.1
2022-11-04T15:31:12.917Z,15.4
2022-11-04T15:33:30.464Z,16.1
2022-11-04T15:35:47.754Z,13.1
2022-11-04T15:38:05.267Z,16
2022-11-04T15:40:23.005Z,16.8
2022-11-04T15:42:40.910Z,15.8
2022-11-04T15:44:58.234Z,15.9
2022-11-04T15:47:16.127Z,15.3
2022-11-04T15:49:33.442Z,11.6
2022-11-04T15:51:51.052Z,14.8
2022-11-04T15:54:08.659Z,15.3
2022-11-04T15:56:26.248Z,15
2022-11-04T15:58:43.837Z,11.9
2022-11-04T16:01:01.531Z,14.6
2022-11-04T16:03:19.188Z,14.3
2022-11-04T16:05:36.805Z,14.8
2022-11-04T16:07:54.733Z,14.5
2022-11-04T16:10:12.228Z,14.8
2022-11-04T16:12:30.035Z,9.9
2022-11-04T16:14:47.713Z,14.6
2022-11-04T16:17:05.554Z,14.4
2022-11-04T16:19:23.699Z,11.8
2022-11-04T16:21:41.046Z,14.9
2022-11-04T16:23:58.778Z,13.6
2022-11-04T16:26:16.304Z,14.5
2022-11-04T16:28:34.184Z,13.8
2022-11-04T16:30:51.814Z,13.6
2022-11-04T16:33:09.835Z,13.6
2022-11-04T16:35:27.432Z,13.8
2022-11-04T16:37:45.293Z,13.4
2022-11-04T16:40:02.945Z,13.3
2022-11-04T16:42:20.862Z,13.4
2022-11-04T16:44:38.338Z,13.3
2022-11-04T16:46:55.989Z,8.9
2022-11-04T16:49:13.872Z,15.4
2022-11-04T16:51:31.607Z,13.6
2022-11-04T16:53:49.578Z,13.1
2022-11-04T16:56:07.226Z,13.7
2022-11-04T16:58:25.125Z,12.8
2022-11-04T17:00:42.895Z,12.8
2022-11-04T17:03:00.652Z,13.6
2022-11-04T17:05:19.110Z,11.5
2022-11-04T17:07:51.969Z,14.4
2022-11-04T17:09:57.179Z,13.2
2022-11-04T17:12:14.810Z,13.3
2022-11-04T17:14:32.484Z,12.1
2022-11-04T17:16:50.171Z,12.9
2022-11-04T17:19:07.730Z,12.9
2022-11-04T17:21:25.571Z,9.8
2022-11-04T17:23:43.120Z,13.5
2022-11-04T17:26:00.712Z,12.2
2022-11-04T17:28:18.438Z,12.6
2022-11-04T17:30:35.999Z,12.3
2022-11-04T17:32:53.609Z,9.1
2022-11-04T17:35:11.303Z,12.6
2022-11-04T17:37:29.124Z,12.8
2022-11-04T17:39:46.655Z,12.2
2022-11-04T17:42:04.305Z,9.3
2022-11-04T17:44:21.927Z,13.8
2022-11-04T17:46:39.690Z,13.1
2022-11-04T17:48:57.353Z,12.1
2022-11-04T17:51:15.110Z,11.2
2022-11-04T17:53:32.603Z,13.8
2022-11-04T17:55:50.352Z,12.6
2022-11-04T17:58:08.034Z,12.2
2022-11-04T18:00:25.757Z,12.3
2022-11-04T18:02:43.594Z,12.3
2022-11-04T18:05:01.159Z,11.8
2022-11-04T18:07:18.753Z,12.1
2022-11-04T18:09:36.302Z,10.6
2022-11-04T18:11:53.981Z,13.1
2022-11-04T18:14:16.367Z,12.5
2022-11-04T18:16:29.385Z,12.3
2022-11-04T18:18:47.103Z,13
2022-11-04T18:21:04.933Z,12.8
2022-11-04T18:23:22.619Z,11.4
2022-11-04T18:25:41.149Z,11.9
2022-11-04T18:27:58.068Z,12.6
2022-11-04T18:30:15.902Z,10.1
2022-11-04T18:32:33.651Z,13.3
2022-11-04T18:34:51.401Z,12.3
2022-11-04T18:37:09.822Z,6.2
2022-11-04T18:39:27.037Z,7.2
2022-11-04T18:41:44.622Z,13.6
2022-11-04T18:44:02.302Z,11.9
2022-11-04T18:46:20.257Z,11.7
2022-11-04T18:48:37.809Z,12.7
2022-11-04T18:50:55.779Z,10.7
2022-11-04T18:53:14.020Z,13.6
2022-11-04T18:55:31.559Z,12.3
2022-11-04T18:57:49.071Z,12.3
2022-11-04T19:00:06.933Z,6.3
2022-11-04T19:02:24.753Z,13.4
2022-11-04T19:04:42.385Z,12.4
2022-11-04T19:07:00.394Z,12.2
2022-11-04T19:12:03.766Z,12.3
2022-11-04T19:14:21.388Z,11.7
2022-11-04T19:16:39.006Z,9.2
2022-11-04T19:18:56.653Z,11.6
2022-11-04T19:21:14.444Z,11.1
2022-11-04T19:23:32.232Z,11.6
2022-11-04T19:25:49.780Z,11.7
2022-11-04T19:28:34.955Z,9.8
2022-11-04T19:30:41.640Z,10.9
2022-11-04T19:32:59.229Z,11.3
2022-11-04T19:35:16.885Z,11.2
2022-11-04T19:37:34.635Z,11.6
2022-11-04T19:39:52.235Z,11.2
2022-11-04T19:42:09.937Z,12.9
2022-11-04T19:44:27.578Z,11.4
2022-11-04T19:46:45.273Z,11.9
2022-11-04T19:49:03.137Z,11
2022-11-04T19:51:20.770Z,10.9
2022-11-04T19:53:38.521Z,10.4
2022-11-04T19:55:56.168Z,11
2022-11-04T19:58:13.985Z,11.3
2022-11-04T20:00:31.514Z,11.4
2022-11-04T20:02:49.299Z,10.9
2022-11-04T20:05:07.026Z,10.6
2022-11-04T20:07:24.677Z,11.2
2022-11-04T20:09:42.358Z,11.6
2022-11-04T20:11:59.981Z,11.7
2022-11-04T20:14:17.969Z,11.6
2022-11-04T20:16:35.399Z,11.7
2022-11-04T20:18:53.018Z,10.8
2022-11-04T20:21:10.811Z,8.6
2022-11-04T20:23:28.400Z,10.4
2022-11-04T20:25:46.229Z,11.4
2022-11-04T20:28:03.840Z,11.1
2022-11-04T20:30:22.116Z,11.4
2022-11-04T20:32:39.205Z,11
2022-11-04T20:34:56.908Z,11
2022-11-04T20:37:14.822Z,11.3
2022-11-04T20:39:32.326Z,10.9
2022-11-04T20:41:50.006Z,10.9
2022-11-04T20:44:07.825Z,11.4
2022-11-04T20:46:25.448Z,10.4
2022-11-04T20:48:43.165Z,10.4
2022-11-04T20:51:00.852Z,10.2
2022-11-04T20:53:18.590Z,10.8
2022-11-04T20:55:36.391Z,11
2022-11-04T20:57:53.927Z,11.1
2022-11-04T21:00:11.941Z,7.6
2022-11-04T21:02:29.426Z,10.1
2022-11-04T21:04:46.892Z,12
2022-11-04T21:07:04.495Z,8.9
2022-11-04T21:09:22.424Z,13.1
2022-11-04T21:11:39.992Z,12.4
2022-11-04T21:13:57.889Z,11.6
2022-11-04T21:16:15.479Z,11.1
2022-11-04T21:18:33.001Z,12.8
2022-11-04T21:20:50.789Z,13.1
2022-11-04T21:23:08.542Z,10.8
2022-11-04T21:25:26.212Z,11.1
2022-11-04T21:27:43.745Z,11.5
2022-11-04T21:30:01.537Z,10.8
2022-11-04T21:32:19.279Z,11.1
2022-11-04T21:34:36.889Z,10.7
2022-11-04T21:36:54.484Z,8.9
2022-11-04T21:39:12.169Z,11.6
2022-11-04T21:41:29.927Z,11.1
2022-11-04T21:43:47.663Z,10.5
2022-11-04T21:46:05.581Z,10.6
2022-11-04T21:48:23.084Z,11.8
2022-11-04T21:50:40.746Z,11.2
2022-11-04T21:52:58.235Z,11.3
2022-11-04T21:55:15.846Z,5.3
2022-11-04T21:57:33.641Z,11.8
2022-11-04T21:59:51.307Z,10.8
2022-11-04T22:02:09.249Z,11.6
2022-11-04T22:04:26.797Z,10.5
2022-11-04T22:06:44.521Z,11
2022-11-04T22:09:02.306Z,11.4
2022-11-04T22:11:19.947Z,11.6
2022-11-04T22:13:37.737Z,11.4
2022-11-04T22:15:55.378Z,11.5
2022-11-04T22:18:13.085Z,10.4
2022-11-04T22:20:30.827Z,10.9
2022-11-04T22:22:48.435Z,11.2
2022-11-04T22:25:06.253Z,11.1
2022-11-04T22:27:23.911Z,11.2
2022-11-04T22:29:41.582Z,11.3
2022-11-04T22:31:59.594Z,10
2022-11-04T22:34:16.988Z,11.3
2022-11-04T22:36:34.725Z,10.6
2022-11-04T22:38:52.446Z,10.6
2022-11-04T22:41:10.222Z,11
2022-11-04T22:43:27.846Z,10
2022-11-04T22:45:45.626Z,10.4
2022-11-04T22:48:03.392Z,10.3
2022-11-04T22:50:21.069Z,10.8
2022-11-04T22:52:38.892Z,10.8
2022-11-04T22:54:56.509Z,10.7
2022-11-04T22:57:14.687Z,10.1
2022-11-04T22:59:31.915Z,10.4
2022-11-04T23:01:50.128Z,10.3
2022-11-04T23:04:07.411Z,10.3
2022-11-04T23:06:25.133Z,10.4
2022-11-04T23:08:42.796Z,10.8
2022-11-04T23:11:00.550Z,11.1
2022-11-04T23:13:18.099Z,10.8
2022-11-04T23:15:35.820Z,9.3
2022-11-04T23:17:53.581Z,8.8
2022-11-04T23:20:10.982Z,8.9
2022-11-04T23:22:28.730Z,12.7
2022-11-04T23:24:46.354Z,11.3
2022-11-04T23:27:04.342Z,11
2022-11-04T23:29:21.743Z,10.8
2022-11-04T23:31:39.500Z,10.5
2022-11-04T23:33:57.295Z,9.4
2022-11-04T23:36:14.985Z,9.9
2022-11-04T23:38:32.680Z,11
2022-11-04T23:40:50.389Z,10.8
2022-11-04T23:43:08.434Z,10.2
2022-11-04T23:45:25.852Z,9.9
2022-11-04T23:47:43.635Z,10
2022-11-04T23:50:01.204Z,10.1
2022-11-04T23:52:18.805Z,11.4
2022-11-04T23:54:36.341Z,3.9
2022-11-04T23:56:54.089Z,10.3
2022-11-04T23:59:11.827Z,10.4
